Pagrindinis puslapis
METAR-TAF:

METAR-TAF

Oro uostai :

Nueva Locha, Ekvadoras

platuma: 00-05-33N, ilguma: 076-52-10W, Aukštis: 299 m

Dabartinis oras

Ataskaita buvo paskelbta 30 minutes, ne 23:00 UTC
Vėjas 3 kt iš Vakarų/Šiaurės Vakarų
Temperatūra 27°C
Drėgmė 84%
Slėgis 1007 hPa
Matomumas 10 km arba daugiau
Mažai debesys ne aukštis 2000 ft
Su prošvaistėmis ne aukštis 10000 ft

METAR: SENL 222300Z 29003KT 9999 FEW020 BKN100 27/24 Q1007 RMK A2976

Laikas: 18:30 (23:30 UTC)


TAF: trūkstamas

Orai ataskaitas ir orų prognozės (METAR, TAF).

turimą stotys yra geltonos ir raudonos taškus žemėlapyje.

Perkelti pele per norėdami pamatyti stoties vardą.

Tada spustelėkite, norėdami matyti oro stebėjimo ir prognozės.

Norėdami pakeisti žemėlapį: spustelėkite ant žalios mygtukų su juodo kryžiaus žemyn,; žalią mygtuką su brūkšneliu, jei norite nutolinti; arba žalių rodyklių gretimoms žemėlapius.


METAR-TAF: